METAR AND TAF INFORMATION


GMME 211600Z 23008KT 5000 RA SCT006 FEW013CB SCT016 16/13 Q1007 TEMPO 3000 RA
GMME 211530Z 22010KT 5000 SCT006 FEW013CB SCT016 15/13 Q1008 RERA TEMPO 3000 RA
TAF GMME 211100Z 2112/2218 27012KT 8000 SCT011 BKN016 TEMPO 2115/2118 4000 RA BKN011TCU

 AIRPORT MAP

 RUNWAY INFORMATION
Runway 04 Runway length 11483 ft Runway width 148 ft
Runway elevation 273 ft Runway displaced threshold 0 ft Runway heading 31
Runway 22 Runway length 11483 ft Runway width 148 ft
Runway elevation 240 ft Runway displaced threshold 0 ft Runway heading 211

 AIRPORT FREQUENCIES
Type APP Name APP Frequency 118.9 MHZ
Type TWR Name TWR Frequency 118.3 MHZ

 AIRPORT NEAR NAVIGATION AIDS
Type VOR-DME Name Rabat Frequency 116500 KHZ
Type NDB Name Rabat Frequency 332 KHZ